Leni P. — A8XW5 — position and weather

sailwx.info

Track history (hours):
 
Tides and Currents Weather Stations Pressure Air Temp Water Temp Dewpoint Dewpoint Depression Visibility Wind Speed Wind Dir Waves Ship Positions

Leni P.

Last reported at 2016-Sep-23 03:10 UTC. Time now 2016-Oct-01 17:16 UTC.
Position N 44°14' E 014°18'.
Warning: this ship's position is 8 days out of date.

Length 274 m; draft 13 m.

Type: Tanker. MMSI: 636014986.

Date/timePositionNaut miles runAvg speedWind from/ knotsBaromVisibWave heightAir tempDewpointWater temp
2016-Sep-23 03:10N 44°14' E 014°18'813.2
2016-Sep-23 02:33N 44°22' E 014°14'1312.9
2016-Sep-23 01:34N 44°34' E 014°08'1212.1
2016-Sep-23 00:33N 44°46' E 014°07'1513.5
2016-Sep-22 23:28N 45°01' E 014°13'19 6.4
2016-Sep-22 20:33N 45°14' E 014°32'0 0.0
2016-Sep-22 12:33N 45°14' E 014°32'0 0.0
2016-Sep-22 04:27N 45°14' E 014°32'0 0.0
2016-Sep-22 03:30N 45°14' E 014°32'0 0.0
2016-Sep-22 00:33N 45°14' E 014°32'0 0.0
2016-Sep-21 23:33N 45°14' E 014°32'0 0.0
2016-Sep-21 22:30N 45°14' E 014°32'16 5.4
2016-Sep-21 19:33N 45°03' E 014°15'3311.0
2016-Sep-21 16:33N 44°35' E 013°52'64 9.1
2016-Sep-21 09:33N 45°34' E 013°19'1212.0
2016-Sep-21 08:33N 45°38' E 013°35'4 0.1
2016-Sep-20 02:28N 45°38' E 013°40'0 0.0
2016-Sep-19 23:31N 45°38' E 013°40'0 0.0
2016-Sep-19 19:31N 45°38' E 013°40'0 0.0
2016-Sep-19 18:31N 45°38' E 013°41'0 0.0
2016-Sep-19 16:25N 45°38' E 013°41'0 0.0
2016-Sep-19 14:31N 45°38' E 013°41'0 0.0
2016-Sep-19 13:25N 45°38' E 013°41'0 0.0
2016-Sep-19 12:28N 45°38' E 013°41'0 0.0
2016-Sep-19 11:31N 45°38' E 013°41'0 0.0
2016-Sep-19 09:31N 45°38' E 013°40'0 0.0
2016-Sep-19 07:31N 45°38' E 013°40'0 0.0
2016-Sep-19 06:22N 45°38' E 013°40'0 0.0
2016-Sep-19 03:16N 45°38' E 013°40'0 0.0
2016-Sep-19 02:31N 45°38' E 013°40'0 0.0
2016-Sep-19 00:13N 45°38' E 013°40'0 0.0
2016-Sep-18 19:28N 45°38' E 013°40'0 0.0
2016-Sep-18 15:31N 45°38' E 013°40'0 0.0
2016-Sep-18 14:31N 45°38' E 013°40'0 0.0
2016-Sep-18 10:28N 45°38' E 013°41'0 0.0
2016-Sep-18 09:31N 45°38' E 013°40'0 0.0
2016-Sep-18 02:31N 45°38' E 013°40'0 0.0
2016-Sep-18 01:28N 45°38' E 013°40'0 0.0
2016-Sep-18 00:31N 45°38' E 013°40'0 0.0
2016-Sep-17 22:31N 45°38' E 013°40'0 0.0
2016-Sep-17 21:31N 45°38' E 013°41'0 0.0
2016-Sep-17 20:31N 45°38' E 013°41'0 0.0
2016-Sep-17 19:16N 45°38' E 013°41'0 0.0
2016-Sep-17 13:31N 45°38' E 013°41'0 0.1
2016-Sep-17 12:31N 45°38' E 013°41'0 0.0
2016-Sep-17 10:31N 45°38' E 013°41'0 0.1
2016-Sep-17 09:31N 45°38' E 013°41'0 0.0
2016-Sep-17 08:31N 45°38' E 013°41'0 0.0
2016-Sep-17 07:28N 45°38' E 013°41'0 0.0
2016-Sep-17 05:33N 45°38' E 013°41'2 2.4
2016-Sep-17 04:33N 45°37' E 013°37'33 8.2
2016-Sep-17 00:33N 45°08' E 013°16'  
2016-Sep-13 20:32N 37°36' E 024°27'2512.6
2016-Sep-13 18:32N 37°60' E 024°38'1312.7
2016-Sep-13 17:30N 38°11' E 024°45'  
Track history (hours):
 
Tides and Currents Weather Stations Pressure Air Temp Water Temp Dewpoint Dewpoint Depression Visibility Wind Speed Wind Dir Waves Ship Positions

Leni P.

Last reported at 2016-Sep-23 03:10 UTC. Time now 2016-Oct-01 17:16 UTC.
Position N 44°14' E 014°18'.
Warning: this ship's position is 8 days out of date.

Length 274 m; draft 13 m.

Type: Tanker. MMSI: 636014986.

Date/timePositionNaut miles runAvg speedWind from/ knotsBaromVisibWave heightAir tempDewpointWater temp
2016-Sep-23 03:10N 44°14' E 014°18'813.2
2016-Sep-23 02:33N 44°22' E 014°14'1312.9
2016-Sep-23 01:34N 44°34' E 014°08'1212.1
2016-Sep-23 00:33N 44°46' E 014°07'1513.5
2016-Sep-22 23:28N 45°01' E 014°13'19 6.4
2016-Sep-22 20:33N 45°14' E 014°32'0 0.0
2016-Sep-22 12:33N 45°14' E 014°32'0 0.0
2016-Sep-22 04:27N 45°14' E 014°32'0 0.0
2016-Sep-22 03:30N 45°14' E 014°32'0 0.0
2016-Sep-22 00:33N 45°14' E 014°32'0 0.0
2016-Sep-21 23:33N 45°14' E 014°32'0 0.0
2016-Sep-21 22:30N 45°14' E 014°32'16 5.4
2016-Sep-21 19:33N 45°03' E 014°15'3311.0
2016-Sep-21 16:33N 44°35' E 013°52'64 9.1
2016-Sep-21 09:33N 45°34' E 013°19'1212.0
2016-Sep-21 08:33N 45°38' E 013°35'4 0.1
2016-Sep-20 02:28N 45°38' E 013°40'0 0.0
2016-Sep-19 23:31N 45°38' E 013°40'0 0.0
2016-Sep-19 19:31N 45°38' E 013°40'0 0.0
2016-Sep-19 18:31N 45°38' E 013°41'0 0.0
2016-Sep-19 16:25N 45°38' E 013°41'0 0.0
2016-Sep-19 14:31N 45°38' E 013°41'0 0.0
2016-Sep-19 13:25N 45°38' E 013°41'0 0.0
2016-Sep-19 12:28N 45°38' E 013°41'0 0.0
2016-Sep-19 11:31N 45°38' E 013°41'0 0.0
2016-Sep-19 09:31N 45°38' E 013°40'0 0.0
2016-Sep-19 07:31N 45°38' E 013°40'0 0.0
2016-Sep-19 06:22N 45°38' E 013°40'0 0.0
2016-Sep-19 03:16N 45°38' E 013°40'0 0.0
2016-Sep-19 02:31N 45°38' E 013°40'0 0.0
2016-Sep-19 00:13N 45°38' E 013°40'0 0.0
2016-Sep-18 19:28N 45°38' E 013°40'0 0.0
2016-Sep-18 15:31N 45°38' E 013°40'0 0.0
2016-Sep-18 14:31N 45°38' E 013°40'0 0.0
2016-Sep-18 10:28N 45°38' E 013°41'0 0.0
2016-Sep-18 09:31N 45°38' E 013°40'0 0.0
2016-Sep-18 02:31N 45°38' E 013°40'0 0.0
2016-Sep-18 01:28N 45°38' E 013°40'0 0.0
2016-Sep-18 00:31N 45°38' E 013°40'0 0.0
2016-Sep-17 22:31N 45°38' E 013°40'0 0.0
2016-Sep-17 21:31N 45°38' E 013°41'0 0.0
2016-Sep-17 20:31N 45°38' E 013°41'0 0.0
2016-Sep-17 19:16N 45°38' E 013°41'0 0.0
2016-Sep-17 13:31N 45°38' E 013°41'0 0.1
2016-Sep-17 12:31N 45°38' E 013°41'0 0.0
2016-Sep-17 10:31N 45°38' E 013°41'0 0.1
2016-Sep-17 09:31N 45°38' E 013°41'0 0.0
2016-Sep-17 08:31N 45°38' E 013°41'0 0.0
2016-Sep-17 07:28N 45°38' E 013°41'0 0.0
2016-Sep-17 05:33N 45°38' E 013°41'2 2.4
2016-Sep-17 04:33N 45°37' E 013°37'33 8.2
2016-Sep-17 00:33N 45°08' E 013°16'  
2016-Sep-13 20:32N 37°36' E 024°27'2512.6
2016-Sep-13 18:32N 37°60' E 024°38'1312.7
2016-Sep-13 17:30N 38°11' E 024°45'  

Dump ship's entire track history